sensor_id;sensor_type;location;lat;lon;timestamp;P1;durP1;ratioP1;P2;durP2;ratioP2
67074;SDS011;53990;50.334;18.640;2023-01-15T00:01:30;12.30;;;5.80;;
67074;SDS011;53990;50.334;18.640;2023-01-15T00:03:58;15.30;;;6.20;;
67074;SDS011;53990;50.334;18.640;2023-01-15T00:06:26;13.90;;;5.60;;
67074;SDS011;53990;50.334;18.640;2023-01-15T00:08:54;12.60;;;4.80;;
67074;SDS011;53990;50.334;18.640;2023-01-15T00:11:22;11.80;;;4.80;;
67074;SDS011;53990;50.334;18.640;2023-01-15T00:13:50;12.10;;;4.50;;
67074;SDS011;53990;50.334;18.640;2023-01-15T00:16:20;8.40;;;3.90;;
67074;SDS011;53990;50.334;18.640;2023-01-15T00:18:52;7.70;;;3.60;;
67074;SDS011;53990;50.334;18.640;2023-01-15T00:21:20;6.20;;;2.90;;
67074;SDS011;53990;50.334;18.640;2023-01-15T00:23:48;7.90;;;3.40;;
67074;SDS011;53990;50.334;18.640;2023-01-15T00:26:35;6.40;;;2.80;;
67074;SDS011;53990;50.334;18.640;2023-01-15T00:29:22;6.60;;;3.00;;
67074;SDS011;53990;50.334;18.640;2023-01-15T00:31:52;5.90;;;3.50;;
67074;SDS011;53990;50.334;18.640;2023-01-15T00:34:20;8.00;;;3.20;;
67074;SDS011;53990;50.334;18.640;2023-01-15T00:36:47;8.10;;;3.30;;
67074;SDS011;53990;50.334;18.640;2023-01-15T00:39:15;8.00;;;3.30;;
67074;SDS011;53990;50.334;18.640;2023-01-15T00:41:42;6.90;;;3.10;;
67074;SDS011;53990;50.334;18.640;2023-01-15T00:44:10;7.60;;;3.20;;
67074;SDS011;53990;50.334;18.640;2023-01-15T00:46:37;7.50;;;3.30;;
67074;SDS011;53990;50.334;18.640;2023-01-15T00:49:04;6.90;;;3.30;;
67074;SDS011;53990;50.334;18.640;2023-01-15T00:51:33;6.10;;;3.20;;
67074;SDS011;53990;50.334;18.640;2023-01-15T00:54:00;6.10;;;3.00;;
67074;SDS011;53990;50.334;18.640;2023-01-15T00:56:28;6.70;;;3.70;;
67074;SDS011;53990;50.334;18.640;2023-01-15T00:58:56;10.70;;;4.00;;
67074;SDS011;53990;50.334;18.640;2023-01-15T01:01:23;9.40;;;3.70;;
67074;SDS011;53990;50.334;18.640;2023-01-15T01:03:51;7.10;;;3.40;;
67074;SDS011;53990;50.334;18.640;2023-01-15T01:06:19;9.80;;;3.80;;
67074;SDS011;53990;50.334;18.640;2023-01-15T01:08:47;9.40;;;4.10;;
67074;SDS011;53990;50.334;18.640;2023-01-15T01:11:17;10.10;;;4.00;;
67074;SDS011;53990;50.334;18.640;2023-01-15T01:13:45;9.60;;;4.40;;
67074;SDS011;53990;50.334;18.640;2023-01-15T01:16:21;9.40;;;4.50;;
67074;SDS011;53990;50.334;18.640;2023-01-15T01:18:49;8.10;;;4.20;;
67074;SDS011;53990;50.334;18.640;2023-01-15T01:21:16;9.40;;;4.00;;
67074;SDS011;53990;50.334;18.640;2023-01-15T01:23:44;11.20;;;5.00;;
67074;SDS011;53990;50.334;18.640;2023-01-15T01:26:11;9.70;;;4.30;;
67074;SDS011;53990;50.334;18.640;2023-01-15T01:28:41;8.50;;;4.20;;
67074;SDS011;53990;50.334;18.640;2023-01-15T01:31:08;9.10;;;4.20;;
67074;SDS011;53990;50.334;18.640;2023-01-15T01:33:36;13.30;;;4.40;;
67074;SDS011;53990;50.334;18.640;2023-01-15T01:36:03;8.40;;;4.40;;
67074;SDS011;53990;50.334;18.640;2023-01-15T01:38:31;10.50;;;4.50;;
67074;SDS011;53990;50.334;18.640;2023-01-15T01:40:58;10.80;;;4.50;;
67074;SDS011;53990;50.334;18.640;2023-01-15T01:43:28;13.30;;;5.10;;
67074;SDS011;53990;50.334;18.640;2023-01-15T01:45:56;12.80;;;4.80;;
67074;SDS011;53990;50.334;18.640;2023-01-15T01:48:30;10.10;;;4.50;;
67074;SDS011;53990;50.334;18.640;2023-01-15T01:53:28;10.60;;;4.00;;
67074;SDS011;53990;50.334;18.640;2023-01-15T01:55:57;9.70;;;4.80;;
67074;SDS011;53990;50.334;18.640;2023-01-15T01:58:27;8.30;;;4.20;;
67074;SDS011;53990;50.334;18.640;2023-01-15T02:00:57;10.00;;;4.10;;
67074;SDS011;53990;50.334;18.640;2023-01-15T02:03:30;6.00;;;3.60;;
67074;SDS011;53990;50.334;18.640;2023-01-15T02:05:59;6.60;;;3.90;;
67074;SDS011;53990;50.334;18.640;2023-01-15T02:08:27;8.70;;;4.20;;
67074;SDS011;53990;50.334;18.640;2023-01-15T02:10:55;6.00;;;3.90;;
67074;SDS011;53990;50.334;18.640;2023-01-15T02:13:40;8.70;;;4.20;;
67074;SDS011;53990;50.334;18.640;2023-01-15T02:16:20;7.10;;;4.00;;
67074;SDS011;53990;50.334;18.640;2023-01-15T02:19:06;8.10;;;4.40;;
67074;SDS011;53990;50.334;18.640;2023-01-15T02:27:22;6.90;;;3.90;;
67074;SDS011;53990;50.334;18.640;2023-01-15T02:30:25;7.40;;;4.00;;
67074;SDS011;53990;50.334;18.640;2023-01-15T02:32:51;7.60;;;3.40;;
67074;SDS011;53990;50.334;18.640;2023-01-15T02:35:28;6.70;;;3.60;;
67074;SDS011;53990;50.334;18.640;2023-01-15T02:37:59;7.60;;;4.20;;
67074;SDS011;53990;50.334;18.640;2023-01-15T02:40:27;8.20;;;3.70;;
67074;SDS011;53990;50.334;18.640;2023-01-15T02:42:56;6.40;;;3.60;;
67074;SDS011;53990;50.334;18.640;2023-01-15T02:45:30;7.20;;;4.20;;
67074;SDS011;53990;50.334;18.640;2023-01-15T02:48:02;7.90;;;3.80;;
67074;SDS011;53990;50.334;18.640;2023-01-15T02:50:35;7.40;;;3.50;;
67074;SDS011;53990;50.334;18.640;2023-01-15T02:53:06;9.80;;;4.20;;
67074;SDS011;53990;50.334;18.640;2023-01-15T02:55:37;10.00;;;4.20;;
67074;SDS011;53990;50.334;18.640;2023-01-15T02:58:09;11.00;;;4.20;;
67074;SDS011;53990;50.334;18.640;2023-01-15T03:00:40;8.90;;;3.80;;
67074;SDS011;53990;50.334;18.640;2023-01-15T03:08:22;9.40;;;4.50;;
67074;SDS011;53990;50.334;18.640;2023-01-15T03:11:00;10.40;;;4.00;;
67074;SDS011;53990;50.334;18.640;2023-01-15T03:13:56;7.80;;;4.00;;
67074;SDS011;53990;50.334;18.640;2023-01-15T03:22:06;7.30;;;3.80;;
67074;SDS011;53990;50.334;18.640;2023-01-15T03:24:56;8.60;;;3.90;;
67074;SDS011;53990;50.334;18.640;2023-01-15T03:27:26;9.60;;;3.80;;
67074;SDS011;53990;50.334;18.640;2023-01-15T03:30:01;7.50;;;3.70;;
67074;SDS011;53990;50.334;18.640;2023-01-15T03:32:29;8.40;;;3.50;;
67074;SDS011;53990;50.334;18.640;2023-01-15T03:34:57;7.10;;;3.50;;
67074;SDS011;53990;50.334;18.640;2023-01-15T03:37:26;8.00;;;3.50;;
67074;SDS011;53990;50.334;18.640;2023-01-15T03:39:55;6.20;;;3.10;;
67074;SDS011;53990;50.334;18.640;2023-01-15T03:50:21;6.20;;;3.10;;
67074;SDS011;53990;50.334;18.640;2023-01-15T03:53:03;5.90;;;3.40;;
67074;SDS011;53990;50.334;18.640;2023-01-15T04:00:52;8.10;;;3.50;;
67074;SDS011;53990;50.334;18.640;2023-01-15T04:03:22;7.40;;;3.40;;
67074;SDS011;53990;50.334;18.640;2023-01-15T04:05:50;6.90;;;3.60;;
67074;SDS011;53990;50.334;18.640;2023-01-15T04:08:18;8.40;;;3.50;;
67074;SDS011;53990;50.334;18.640;2023-01-15T04:11:12;5.70;;;3.30;;
67074;SDS011;53990;50.334;18.640;2023-01-15T04:13:39;5.70;;;2.80;;
67074;SDS011;53990;50.334;18.640;2023-01-15T04:16:07;5.90;;;2.90;;
67074;SDS011;53990;50.334;18.640;2023-01-15T04:18:34;6.90;;;3.20;;
67074;SDS011;53990;50.334;18.640;2023-01-15T04:21:02;4.90;;;2.90;;
67074;SDS011;53990;50.334;18.640;2023-01-15T04:23:29;7.00;;;3.30;;
67074;SDS011;53990;50.334;18.640;2023-01-15T04:25:56;6.30;;;3.00;;
67074;SDS011;53990;50.334;18.640;2023-01-15T04:28:23;9.10;;;3.30;;
67074;SDS011;53990;50.334;18.640;2023-01-15T04:30:51;6.80;;;2.90;;
67074;SDS011;53990;50.334;18.640;2023-01-15T04:33:18;5.60;;;3.00;;
67074;SDS011;53990;50.334;18.640;2023-01-15T04:35:45;6.80;;;3.40;;
67074;SDS011;53990;50.334;18.640;2023-01-15T04:38:13;6.20;;;3.70;;
67074;SDS011;53990;50.334;18.640;2023-01-15T04:40:40;5.50;;;2.80;;
67074;SDS011;53990;50.334;18.640;2023-01-15T04:43:26;4.90;;;2.50;;
67074;SDS011;53990;50.334;18.640;2023-01-15T04:46:12;6.10;;;2.90;;
67074;SDS011;53990;50.334;18.640;2023-01-15T04:48:39;5.80;;;3.10;;
67074;SDS011;53990;50.334;18.640;2023-01-15T04:51:06;5.10;;;2.70;;
67074;SDS011;53990;50.334;18.640;2023-01-15T04:53:34;8.10;;;3.10;;
67074;SDS011;53990;50.334;18.640;2023-01-15T04:56:02;7.30;;;2.70;;
67074;SDS011;53990;50.334;18.640;2023-01-15T04:58:30;5.50;;;2.50;;
67074;SDS011;53990;50.334;18.640;2023-01-15T05:00:58;6.80;;;2.80;;
67074;SDS011;53990;50.334;18.640;2023-01-15T05:03:27;6.90;;;3.10;;
67074;SDS011;53990;50.334;18.640;2023-01-15T05:05:55;7.40;;;3.20;;
67074;SDS011;53990;50.334;18.640;2023-01-15T05:08:22;7.00;;;3.00;;
67074;SDS011;53990;50.334;18.640;2023-01-15T05:10:49;5.30;;;2.70;;
67074;SDS011;53990;50.334;18.640;2023-01-15T05:13:17;6.80;;;3.60;;
67074;SDS011;53990;50.334;18.640;2023-01-15T05:15:44;8.00;;;3.80;;
67074;SDS011;53990;50.334;18.640;2023-01-15T05:18:12;5.60;;;3.20;;
67074;SDS011;53990;50.334;18.640;2023-01-15T05:20:41;7.60;;;3.60;;
67074;SDS011;53990;50.334;18.640;2023-01-15T05:23:08;6.30;;;3.60;;
67074;SDS011;53990;50.334;18.640;2023-01-15T05:25:36;6.50;;;3.60;;
67074;SDS011;53990;50.334;18.640;2023-01-15T05:28:03;7.00;;;3.10;;
67074;SDS011;53990;50.334;18.640;2023-01-15T05:30:31;6.90;;;3.40;;
67074;SDS011;53990;50.334;18.640;2023-01-15T05:32:58;5.20;;;2.80;;
67074;SDS011;53990;50.334;18.640;2023-01-15T05:35:25;8.40;;;3.60;;
67074;SDS011;53990;50.334;18.640;2023-01-15T05:37:52;8.70;;;3.20;;
67074;SDS011;53990;50.334;18.640;2023-01-15T05:40:20;7.50;;;3.20;;
67074;SDS011;53990;50.334;18.640;2023-01-15T05:42:47;6.50;;;3.20;;
67074;SDS011;53990;50.334;18.640;2023-01-15T05:45:14;7.90;;;3.60;;
67074;SDS011;53990;50.334;18.640;2023-01-15T05:47:42;6.50;;;3.20;;
67074;SDS011;53990;50.334;18.640;2023-01-15T05:50:09;6.70;;;3.70;;
67074;SDS011;53990;50.334;18.640;2023-01-15T05:52:37;5.80;;;3.20;;
67074;SDS011;53990;50.334;18.640;2023-01-15T05:55:04;6.50;;;3.80;;
67074;SDS011;53990;50.334;18.640;2023-01-15T05:57:32;6.50;;;3.50;;
67074;SDS011;53990;50.334;18.640;2023-01-15T05:59:59;7.70;;;3.70;;
67074;SDS011;53990;50.334;18.640;2023-01-15T06:02:26;7.50;;;3.40;;
67074;SDS011;53990;50.334;18.640;2023-01-15T06:04:54;8.40;;;3.60;;
67074;SDS011;53990;50.334;18.640;2023-01-15T06:07:21;7.10;;;4.00;;
67074;SDS011;53990;50.334;18.640;2023-01-15T06:09:48;7.70;;;4.20;;
67074;SDS011;53990;50.334;18.640;2023-01-15T06:12:15;7.40;;;4.40;;
67074;SDS011;53990;50.334;18.640;2023-01-15T06:14:42;6.70;;;4.50;;
67074;SDS011;53990;50.334;18.640;2023-01-15T06:17:10;7.50;;;4.20;;
67074;SDS011;53990;50.334;18.640;2023-01-15T06:19:37;8.00;;;4.50;;
67074;SDS011;53990;50.334;18.640;2023-01-15T06:22:04;7.80;;;4.80;;
67074;SDS011;53990;50.334;18.640;2023-01-15T06:24:32;8.50;;;4.70;;
67074;SDS011;53990;50.334;18.640;2023-01-15T06:26:59;6.30;;;4.50;;
67074;SDS011;53990;50.334;18.640;2023-01-15T06:29:26;7.00;;;4.70;;
67074;SDS011;53990;50.334;18.640;2023-01-15T06:31:53;8.20;;;5.10;;
67074;SDS011;53990;50.334;18.640;2023-01-15T06:34:20;7.10;;;4.80;;
67074;SDS011;53990;50.334;18.640;2023-01-15T06:36:48;7.50;;;4.50;;
67074;SDS011;53990;50.334;18.640;2023-01-15T06:39:15;8.00;;;4.90;;
67074;SDS011;53990;50.334;18.640;2023-01-15T06:41:42;7.80;;;4.80;;
67074;SDS011;53990;50.334;18.640;2023-01-15T06:44:28;7.10;;;4.70;;
67074;SDS011;53990;50.334;18.640;2023-01-15T06:47:17;8.60;;;4.60;;
67074;SDS011;53990;50.334;18.640;2023-01-15T06:49:49;8.80;;;5.10;;
67074;SDS011;53990;50.334;18.640;2023-01-15T06:52:17;8.80;;;4.70;;
67074;SDS011;53990;50.334;18.640;2023-01-15T06:54:45;8.70;;;4.60;;
67074;SDS011;53990;50.334;18.640;2023-01-15T06:57:12;6.00;;;4.00;;
67074;SDS011;53990;50.334;18.640;2023-01-15T06:59:40;7.40;;;4.50;;
67074;SDS011;53990;50.334;18.640;2023-01-15T07:02:09;6.10;;;3.90;;
67074;SDS011;53990;50.334;18.640;2023-01-15T07:04:37;6.10;;;4.00;;
67074;SDS011;53990;50.334;18.640;2023-01-15T07:07:04;7.60;;;4.10;;
67074;SDS011;53990;50.334;18.640;2023-01-15T07:09:31;8.60;;;4.10;;
67074;SDS011;53990;50.334;18.640;2023-01-15T07:11:59;8.30;;;4.50;;
67074;SDS011;53990;50.334;18.640;2023-01-15T07:14:26;7.60;;;4.20;;
67074;SDS011;53990;50.334;18.640;2023-01-15T07:16:54;7.00;;;4.30;;
67074;SDS011;53990;50.334;18.640;2023-01-15T07:19:21;5.70;;;3.80;;
67074;SDS011;53990;50.334;18.640;2023-01-15T07:21:49;7.70;;;4.10;;
67074;SDS011;53990;50.334;18.640;2023-01-15T07:24:16;9.00;;;4.10;;
67074;SDS011;53990;50.334;18.640;2023-01-15T07:26:44;7.10;;;3.80;;
67074;SDS011;53990;50.334;18.640;2023-01-15T07:29:12;6.60;;;4.00;;
67074;SDS011;53990;50.334;18.640;2023-01-15T07:31:39;6.20;;;3.80;;
67074;SDS011;53990;50.334;18.640;2023-01-15T07:34:08;8.60;;;4.60;;
67074;SDS011;53990;50.334;18.640;2023-01-15T07:36:36;8.40;;;4.00;;
67074;SDS011;53990;50.334;18.640;2023-01-15T07:39:04;6.40;;;4.20;;
67074;SDS011;53990;50.334;18.640;2023-01-15T07:41:31;10.40;;;6.60;;
67074;SDS011;53990;50.334;18.640;2023-01-15T07:44:17;6.50;;;4.30;;
67074;SDS011;53990;50.334;18.640;2023-01-15T07:47:13;8.20;;;4.80;;
67074;SDS011;53990;50.334;18.640;2023-01-15T07:49:59;7.10;;;4.40;;
67074;SDS011;53990;50.334;18.640;2023-01-15T07:52:27;8.00;;;4.60;;
67074;SDS011;53990;50.334;18.640;2023-01-15T07:54:54;8.10;;;4.40;;
67074;SDS011;53990;50.334;18.640;2023-01-15T07:57:22;8.00;;;5.20;;
67074;SDS011;53990;50.334;18.640;2023-01-15T07:59:49;9.30;;;4.80;;
67074;SDS011;53990;50.334;18.640;2023-01-15T08:02:17;5.70;;;3.90;;
67074;SDS011;53990;50.334;18.640;2023-01-15T08:04:44;8.40;;;5.10;;
67074;SDS011;53990;50.334;18.640;2023-01-15T08:07:14;7.50;;;4.20;;
67074;SDS011;53990;50.334;18.640;2023-01-15T08:09:41;9.60;;;4.60;;
67074;SDS011;53990;50.334;18.640;2023-01-15T08:12:10;8.60;;;4.70;;
67074;SDS011;53990;50.334;18.640;2023-01-15T08:17:47;8.00;;;4.90;;
67074;SDS011;53990;50.334;18.640;2023-01-15T08:20:20;9.30;;;4.60;;
67074;SDS011;53990;50.334;18.640;2023-01-15T08:22:48;7.10;;;4.10;;
67074;SDS011;53990;50.334;18.640;2023-01-15T08:25:18;7.10;;;3.90;;
67074;SDS011;53990;50.334;18.640;2023-01-15T08:27:46;8.90;;;4.50;;
67074;SDS011;53990;50.334;18.640;2023-01-15T08:30:17;7.30;;;4.60;;
67074;SDS011;53990;50.334;18.640;2023-01-15T08:32:45;10.40;;;4.50;;
67074;SDS011;53990;50.334;18.640;2023-01-15T08:35:12;8.00;;;4.50;;
67074;SDS011;53990;50.334;18.640;2023-01-15T08:37:40;9.10;;;5.30;;
67074;SDS011;53990;50.334;18.640;2023-01-15T08:40:10;7.50;;;4.30;;
67074;SDS011;53990;50.334;18.640;2023-01-15T08:42:37;7.40;;;4.30;;
67074;SDS011;53990;50.334;18.640;2023-01-15T08:45:06;8.50;;;4.60;;
67074;SDS011;53990;50.334;18.640;2023-01-15T08:47:33;8.30;;;4.50;;
67074;SDS011;53990;50.334;18.640;2023-01-15T08:50:01;8.50;;;4.90;;
67074;SDS011;53990;50.334;18.640;2023-01-15T08:52:28;8.40;;;4.60;;
67074;SDS011;53990;50.334;18.640;2023-01-15T08:54:55;7.60;;;4.90;;
67074;SDS011;53990;50.334;18.640;2023-01-15T08:57:23;9.70;;;4.60;;
67074;SDS011;53990;50.334;18.640;2023-01-15T08:59:50;8.10;;;4.80;;
67074;SDS011;53990;50.334;18.640;2023-01-15T09:02:17;9.90;;;5.40;;
67074;SDS011;53990;50.334;18.640;2023-01-15T09:04:44;7.80;;;4.60;;
67074;SDS011;53990;50.334;18.640;2023-01-15T09:07:12;10.40;;;5.10;;
67074;SDS011;53990;50.334;18.640;2023-01-15T09:09:39;11.40;;;4.90;;
67074;SDS011;53990;50.334;18.640;2023-01-15T09:12:06;8.70;;;5.10;;
67074;SDS011;53990;50.334;18.640;2023-01-15T09:14:34;10.20;;;5.20;;
67074;SDS011;53990;50.334;18.640;2023-01-15T09:17:02;10.60;;;5.30;;
67074;SDS011;53990;50.334;18.640;2023-01-15T09:19:29;10.10;;;5.20;;
67074;SDS011;53990;50.334;18.640;2023-01-15T09:21:56;9.80;;;5.40;;
67074;SDS011;53990;50.334;18.640;2023-01-15T09:24:24;10.90;;;6.00;;
67074;SDS011;53990;50.334;18.640;2023-01-15T09:26:51;15.70;;;9.20;;
67074;SDS011;53990;50.334;18.640;2023-01-15T09:29:19;21.10;;;13.10;;
67074;SDS011;53990;50.334;18.640;2023-01-15T09:31:47;26.00;;;16.70;;
67074;SDS011;53990;50.334;18.640;2023-01-15T09:34:14;12.60;;;6.60;;
67074;SDS011;53990;50.334;18.640;2023-01-15T09:36:41;12.40;;;5.90;;
67074;SDS011;53990;50.334;18.640;2023-01-15T09:39:09;10.10;;;5.60;;
67074;SDS011;53990;50.334;18.640;2023-01-15T09:47:22;11.00;;;4.60;;
67074;SDS011;53990;50.334;18.640;2023-01-15T09:57:49;11.50;;;4.60;;
67074;SDS011;53990;50.334;18.640;2023-01-15T10:00:22;9.50;;;4.80;;
67074;SDS011;53990;50.334;18.640;2023-01-15T10:06:08;8.50;;;4.70;;
67074;SDS011;53990;50.334;18.640;2023-01-15T10:08:58;11.00;;;5.30;;
67074;SDS011;53990;50.334;18.640;2023-01-15T10:11:37;10.30;;;5.10;;
67074;SDS011;53990;50.334;18.640;2023-01-15T10:15:40;11.70;;;5.40;;
67074;SDS011;53990;50.334;18.640;2023-01-15T10:17:42;14.10;;;6.60;;
67074;SDS011;53990;50.334;18.640;2023-01-15T10:25:52;15.90;;;7.50;;
67074;SDS011;53990;50.334;18.640;2023-01-15T10:28:29;12.10;;;6.20;;
67074;SDS011;53990;50.334;18.640;2023-01-15T10:31:20;13.20;;;6.40;;
67074;SDS011;53990;50.334;18.640;2023-01-15T10:33:59;12.60;;;6.20;;
67074;SDS011;53990;50.334;18.640;2023-01-15T10:37:18;10.60;;;5.40;;
67074;SDS011;53990;50.334;18.640;2023-01-15T10:45:22;11.70;;;6.50;;
67074;SDS011;53990;50.334;18.640;2023-01-15T10:47:58;12.40;;;6.20;;
67074;SDS011;53990;50.334;18.640;2023-01-15T10:50:26;10.00;;;5.30;;
67074;SDS011;53990;50.334;18.640;2023-01-15T10:55:48;10.50;;;5.80;;
67074;SDS011;53990;50.334;18.640;2023-01-15T11:01:05;9.70;;;5.00;;
67074;SDS011;53990;50.334;18.640;2023-01-15T11:03:39;10.00;;;5.50;;
67074;SDS011;53990;50.334;18.640;2023-01-15T11:06:14;10.60;;;5.40;;
67074;SDS011;53990;50.334;18.640;2023-01-15T11:09:00;10.90;;;5.40;;
67074;SDS011;53990;50.334;18.640;2023-01-15T11:14:17;10.20;;;5.50;;
67074;SDS011;53990;50.334;18.640;2023-01-15T11:17:10;12.20;;;6.30;;
67074;SDS011;53990;50.334;18.640;2023-01-15T11:19:59;12.00;;;5.70;;
67074;SDS011;53990;50.334;18.640;2023-01-15T11:22:26;11.80;;;5.90;;
67074;SDS011;53990;50.334;18.640;2023-01-15T11:24:57;8.90;;;5.50;;
67074;SDS011;53990;50.334;18.640;2023-01-15T11:27:29;10.80;;;5.40;;
67074;SDS011;53990;50.334;18.640;2023-01-15T11:29:58;10.10;;;5.80;;
67074;SDS011;53990;50.334;18.640;2023-01-15T11:32:31;12.20;;;6.10;;
67074;SDS011;53990;50.334;18.640;2023-01-15T11:35:02;10.50;;;5.70;;
67074;SDS011;53990;50.334;18.640;2023-01-15T11:37:30;11.10;;;5.50;;
67074;SDS011;53990;50.334;18.640;2023-01-15T11:39:59;10.90;;;5.80;;
67074;SDS011;53990;50.334;18.640;2023-01-15T11:42:35;10.00;;;5.50;;
67074;SDS011;53990;50.334;18.640;2023-01-15T11:45:23;12.90;;;6.40;;
67074;SDS011;53990;50.334;18.640;2023-01-15T11:48:20;12.80;;;6.70;;
67074;SDS011;53990;50.334;18.640;2023-01-15T11:53:40;11.80;;;6.40;;
67074;SDS011;53990;50.334;18.640;2023-01-15T11:56:20;14.30;;;6.20;;
67074;SDS011;53990;50.334;18.640;2023-01-15T11:58:52;12.90;;;6.40;;
67074;SDS011;53990;50.334;18.640;2023-01-15T12:01:23;10.80;;;5.60;;
67074;SDS011;53990;50.334;18.640;2023-01-15T12:03:55;13.20;;;7.40;;
67074;SDS011;53990;50.334;18.640;2023-01-15T12:06:24;12.30;;;6.30;;
67074;SDS011;53990;50.334;18.640;2023-01-15T12:09:27;20.70;;;9.80;;
67074;SDS011;53990;50.334;18.640;2023-01-15T12:11:55;14.10;;;7.10;;
67074;SDS011;53990;50.334;18.640;2023-01-15T12:17:41;16.90;;;8.00;;
67074;SDS011;53990;50.334;18.640;2023-01-15T12:20:45;15.00;;;7.90;;
67074;SDS011;53990;50.334;18.640;2023-01-15T12:23:38;15.70;;;7.40;;
67074;SDS011;53990;50.334;18.640;2023-01-15T12:26:37;16.20;;;7.90;;
67074;SDS011;53990;50.334;18.640;2023-01-15T12:34:34;22.10;;;10.50;;
67074;SDS011;53990;50.334;18.640;2023-01-15T12:37:09;15.90;;;8.30;;
67074;SDS011;53990;50.334;18.640;2023-01-15T12:40:03;21.00;;;10.50;;
67074;SDS011;53990;50.334;18.640;2023-01-15T12:42:33;16.80;;;10.10;;
67074;SDS011;53990;50.334;18.640;2023-01-15T12:45:24;24.40;;;12.10;;
67074;SDS011;53990;50.334;18.640;2023-01-15T12:48:10;17.90;;;9.20;;
67074;SDS011;53990;50.334;18.640;2023-01-15T12:50:40;16.50;;;8.30;;
67074;SDS011;53990;50.334;18.640;2023-01-15T12:58:41;18.60;;;10.30;;
67074;SDS011;53990;50.334;18.640;2023-01-15T13:04:29;20.60;;;11.00;;
67074;SDS011;53990;50.334;18.640;2023-01-15T13:09:51;19.10;;;10.60;;
67074;SDS011;53990;50.334;18.640;2023-01-15T13:12:19;19.80;;;10.80;;
67074;SDS011;53990;50.334;18.640;2023-01-15T13:14:47;17.10;;;9.80;;
67074;SDS011;53990;50.334;18.640;2023-01-15T13:17:24;16.90;;;8.40;;
67074;SDS011;53990;50.334;18.640;2023-01-15T13:20:07;14.00;;;7.30;;
67074;SDS011;53990;50.334;18.640;2023-01-15T13:22:46;13.30;;;7.20;;
67074;SDS011;53990;50.334;18.640;2023-01-15T13:28:46;11.90;;;6.20;;
67074;SDS011;53990;50.334;18.640;2023-01-15T13:31:38;9.30;;;5.30;;
67074;SDS011;53990;50.334;18.640;2023-01-15T13:34:22;9.60;;;5.20;;
67074;SDS011;53990;50.334;18.640;2023-01-15T13:36:53;10.90;;;5.10;;
67074;SDS011;53990;50.334;18.640;2023-01-15T13:39:24;6.80;;;4.40;;
67074;SDS011;53990;50.334;18.640;2023-01-15T13:41:54;10.40;;;5.60;;
67074;SDS011;53990;50.334;18.640;2023-01-15T13:44:48;8.70;;;5.20;;
67074;SDS011;53990;50.334;18.640;2023-01-15T13:47:21;8.60;;;5.00;;
67074;SDS011;53990;50.334;18.640;2023-01-15T13:49:53;8.30;;;4.70;;
67074;SDS011;53990;50.334;18.640;2023-01-15T13:52:30;9.40;;;5.20;;
67074;SDS011;53990;50.334;18.640;2023-01-15T13:55:19;6.80;;;4.40;;
67074;SDS011;53990;50.334;18.640;2023-01-15T13:57:52;7.20;;;4.50;;
67074;SDS011;53990;50.334;18.640;2023-01-15T14:00:33;10.00;;;5.40;;
67074;SDS011;53990;50.334;18.640;2023-01-15T14:03:26;8.40;;;4.40;;
67074;SDS011;53990;50.334;18.640;2023-01-15T14:06:00;11.20;;;5.60;;
67074;SDS011;53990;50.334;18.640;2023-01-15T14:08:37;8.20;;;4.50;;
67074;SDS011;53990;50.334;18.640;2023-01-15T14:11:04;9.60;;;5.60;;
67074;SDS011;53990;50.334;18.640;2023-01-15T14:16:22;11.40;;;6.70;;
67074;SDS011;53990;50.334;18.640;2023-01-15T14:30:03;10.50;;;6.00;;
67074;SDS011;53990;50.334;18.640;2023-01-15T14:35:12;11.10;;;5.70;;
67074;SDS011;53990;50.334;18.640;2023-01-15T14:40:34;9.70;;;6.00;;
67074;SDS011;53990;50.334;18.640;2023-01-15T14:43:07;11.10;;;6.40;;
67074;SDS011;53990;50.334;18.640;2023-01-15T14:45:41;12.80;;;6.50;;
67074;SDS011;53990;50.334;18.640;2023-01-15T14:51:09;9.70;;;5.40;;
67074;SDS011;53990;50.334;18.640;2023-01-15T14:56:28;9.80;;;5.90;;
67074;SDS011;53990;50.334;18.640;2023-01-15T14:59:03;9.90;;;6.00;;
67074;SDS011;53990;50.334;18.640;2023-01-15T15:06:56;11.30;;;7.10;;
67074;SDS011;53990;50.334;18.640;2023-01-15T15:12:06;13.30;;;7.90;;
67074;SDS011;53990;50.334;18.640;2023-01-15T15:14:57;14.60;;;8.20;;
67074;SDS011;53990;50.334;18.640;2023-01-15T15:17:52;12.40;;;7.40;;
67074;SDS011;53990;50.334;18.640;2023-01-15T15:20:49;16.60;;;10.60;;
67074;SDS011;53990;50.334;18.640;2023-01-15T15:26:03;15.30;;;8.30;;
67074;SDS011;53990;50.334;18.640;2023-01-15T15:28:30;10.50;;;6.80;;
67074;SDS011;53990;50.334;18.640;2023-01-15T15:30:58;13.30;;;8.20;;
67074;SDS011;53990;50.334;18.640;2023-01-15T15:33:38;11.50;;;7.20;;
67074;SDS011;53990;50.334;18.640;2023-01-15T15:36:06;14.20;;;7.50;;
67074;SDS011;53990;50.334;18.640;2023-01-15T15:38:34;11.10;;;6.50;;
67074;SDS011;53990;50.334;18.640;2023-01-15T15:41:10;13.30;;;9.00;;
67074;SDS011;53990;50.334;18.640;2023-01-15T15:43:48;11.90;;;7.40;;
67074;SDS011;53990;50.334;18.640;2023-01-15T15:46:36;15.90;;;8.60;;
67074;SDS011;53990;50.334;18.640;2023-01-15T15:49:22;16.00;;;10.30;;
67074;SDS011;53990;50.334;18.640;2023-01-15T15:51:52;24.40;;;14.30;;
67074;SDS011;53990;50.334;18.640;2023-01-15T15:54:24;44.40;;;24.10;;
67074;SDS011;53990;50.334;18.640;2023-01-15T15:57:12;29.30;;;18.90;;
67074;SDS011;53990;50.334;18.640;2023-01-15T15:59:46;19.90;;;13.80;;
67074;SDS011;53990;50.334;18.640;2023-01-15T16:02:25;17.70;;;11.10;;
67074;SDS011;53990;50.334;18.640;2023-01-15T16:04:58;17.10;;;9.30;;
67074;SDS011;53990;50.334;18.640;2023-01-15T16:07:28;14.00;;;9.90;;
67074;SDS011;53990;50.334;18.640;2023-01-15T16:10:03;18.10;;;10.80;;
67074;SDS011;53990;50.334;18.640;2023-01-15T16:12:33;16.50;;;10.10;;
67074;SDS011;53990;50.334;18.640;2023-01-15T16:15:03;19.00;;;12.20;;
67074;SDS011;53990;50.334;18.640;2023-01-15T16:17:30;16.20;;;10.20;;
67074;SDS011;53990;50.334;18.640;2023-01-15T16:19:58;15.80;;;9.90;;
67074;SDS011;53990;50.334;18.640;2023-01-15T16:22:26;13.80;;;8.40;;
67074;SDS011;53990;50.334;18.640;2023-01-15T16:24:55;15.40;;;9.00;;
67074;SDS011;53990;50.334;18.640;2023-01-15T16:27:31;15.10;;;8.90;;
67074;SDS011;53990;50.334;18.640;2023-01-15T16:29:59;15.10;;;9.80;;
67074;SDS011;53990;50.334;18.640;2023-01-15T16:32:29;14.30;;;8.80;;
67074;SDS011;53990;50.334;18.640;2023-01-15T16:35:06;14.40;;;8.70;;
67074;SDS011;53990;50.334;18.640;2023-01-15T16:37:33;12.50;;;8.20;;
67074;SDS011;53990;50.334;18.640;2023-01-15T16:40:03;14.00;;;8.70;;
67074;SDS011;53990;50.334;18.640;2023-01-15T16:42:35;12.60;;;8.50;;
67074;SDS011;53990;50.334;18.640;2023-01-15T16:45:19;11.70;;;8.10;;
67074;SDS011;53990;50.334;18.640;2023-01-15T16:50:35;16.40;;;8.90;;
67074;SDS011;53990;50.334;18.640;2023-01-15T16:53:04;13.10;;;8.80;;
67074;SDS011;53990;50.334;18.640;2023-01-15T16:55:37;15.40;;;10.50;;
67074;SDS011;53990;50.334;18.640;2023-01-15T17:00:42;16.40;;;9.50;;
67074;SDS011;53990;50.334;18.640;2023-01-15T17:05:42;13.40;;;9.10;;
67074;SDS011;53990;50.334;18.640;2023-01-15T17:08:21;13.30;;;8.70;;
67074;SDS011;53990;50.334;18.640;2023-01-15T17:10:58;14.00;;;8.30;;
67074;SDS011;53990;50.334;18.640;2023-01-15T17:13:39;13.40;;;8.20;;
67074;SDS011;53990;50.334;18.640;2023-01-15T17:16:27;10.20;;;6.40;;
67074;SDS011;53990;50.334;18.640;2023-01-15T17:18:56;10.40;;;6.20;;
67074;SDS011;53990;50.334;18.640;2023-01-15T17:21:23;9.30;;;6.50;;